createdAt,value
2023-05-19T00:02:09.347Z,2.50
2023-05-19T00:05:18.456Z,2.50
2023-05-19T00:08:21.121Z,2.60
2023-05-19T00:11:23.793Z,2.50
2023-05-19T00:14:26.105Z,2.63
2023-05-19T00:17:28.500Z,2.70
2023-05-19T00:20:30.886Z,2.87
2023-05-19T00:23:33.055Z,2.40
2023-05-19T00:26:35.337Z,2.50
2023-05-19T00:29:37.481Z,2.87
2023-05-19T00:32:39.609Z,2.60
2023-05-19T00:35:41.779Z,2.60
2023-05-19T00:38:43.894Z,3.10
2023-05-19T00:41:46.116Z,2.20
2023-05-19T00:44:48.232Z,2.80
2023-05-19T00:47:50.385Z,2.80
2023-05-19T00:50:54.753Z,2.70
2023-05-19T00:53:56.930Z,2.67
2023-05-19T00:56:59.877Z,2.47
2023-05-19T01:00:02.152Z,2.80
2023-05-19T01:03:11.258Z,2.83
2023-05-19T01:06:14.966Z,2.50
2023-05-19T01:09:18.062Z,2.80
2023-05-19T01:12:20.227Z,2.37
2023-05-19T01:15:23.152Z,2.60
2023-05-19T01:18:46.390Z,2.67
2023-05-19T01:22:13.500Z,2.80
2023-05-19T01:25:34.653Z,2.60
2023-05-19T01:28:42.921Z,2.43
2023-05-19T01:31:47.722Z,2.50
2023-05-19T01:34:51.313Z,2.50
2023-05-19T01:37:55.836Z,2.73
2023-05-19T01:40:58.700Z,2.70
2023-05-19T01:44:01.199Z,2.30
2023-05-19T01:47:03.791Z,2.43
2023-05-19T01:50:06.193Z,2.53
2023-05-19T01:53:08.828Z,2.40
2023-05-19T01:56:11.288Z,2.50
2023-05-19T01:59:36.768Z,2.70
2023-05-19T02:02:41.890Z,2.80
2023-05-19T02:05:44.022Z,2.30
2023-05-19T02:08:58.695Z,2.90
2023-05-19T02:12:03.689Z,2.00
2023-05-19T02:15:07.098Z,2.37
2023-05-19T02:18:12.454Z,2.77
2023-05-19T02:21:14.708Z,2.40
2023-05-19T02:24:17.019Z,2.33
2023-05-19T02:27:19.236Z,2.23
2023-05-19T02:30:21.377Z,2.33
2023-05-19T02:33:26.001Z,2.50
2023-05-19T02:36:28.561Z,2.60
2023-05-19T02:39:35.041Z,2.57
2023-05-19T02:42:37.214Z,2.10
2023-05-19T02:45:39.350Z,2.40
2023-05-19T02:48:41.503Z,2.17
2023-05-19T02:51:43.631Z,2.50
2023-05-19T02:54:45.755Z,2.60
2023-05-19T02:57:47.965Z,2.10
2023-05-19T03:00:51.466Z,2.10
2023-05-19T03:03:53.674Z,2.47
2023-05-19T03:06:56.087Z,2.13
2023-05-19T03:09:58.217Z,2.27
2023-05-19T03:13:00.409Z,2.47
2023-05-19T03:16:03.461Z,2.10
2023-05-19T03:19:05.753Z,2.33
2023-05-19T03:22:07.928Z,2.23
2023-05-19T03:25:10.373Z,2.70
2023-05-19T03:28:12.513Z,2.60
2023-05-19T03:31:14.701Z,2.23
2023-05-19T03:34:16.831Z,2.30
2023-05-19T03:37:18.916Z,2.57
2023-05-19T03:40:21.182Z,2.60
2023-05-19T03:43:23.255Z,2.10
2023-05-19T03:46:25.464Z,2.40
2023-05-19T03:49:27.693Z,2.20
2023-05-19T03:52:29.869Z,2.03
2023-05-19T03:55:32.031Z,2.50
2023-05-19T03:58:34.406Z,2.57
2023-05-19T04:01:36.690Z,2.50
2023-05-19T04:04:38.996Z,2.07
2023-05-19T04:07:41.636Z,2.30
2023-05-19T04:10:43.757Z,2.63
2023-05-19T04:13:45.951Z,2.43
2023-05-19T04:16:48.211Z,2.33
2023-05-19T04:19:50.323Z,2.40
2023-05-19T04:22:52.444Z,3.00
2023-05-19T04:25:55.128Z,2.90
2023-05-19T04:28:57.523Z,2.40
2023-05-19T04:32:00.948Z,2.47
2023-05-19T04:35:03.277Z,2.30
2023-05-19T04:38:05.393Z,2.23
2023-05-19T04:41:10.775Z,2.40
2023-05-19T04:44:13.526Z,2.57
2023-05-19T04:47:16.153Z,2.20
2023-05-19T04:50:18.292Z,2.03
2023-05-19T04:53:21.977Z,2.67
2023-05-19T04:56:24.277Z,2.33
2023-05-19T04:59:26.399Z,2.90
2023-05-19T05:02:28.569Z,2.00
2023-05-19T05:05:30.699Z,2.10
2023-05-19T05:08:32.992Z,2.40
2023-05-19T05:11:35.400Z,2.13
2023-05-19T05:14:37.693Z,2.33
2023-05-19T05:17:40.017Z,2.20
2023-05-19T05:20:43.395Z,2.17
2023-05-19T05:23:45.710Z,2.53
2023-05-19T05:26:47.958Z,1.97
2023-05-19T05:29:54.115Z,2.40
2023-05-19T05:32:56.498Z,2.40
2023-05-19T05:35:58.699Z,2.13
2023-05-19T05:39:02.266Z,2.00
2023-05-19T05:42:04.590Z,2.20
2023-05-19T05:45:07.032Z,2.13
2023-05-19T05:48:09.485Z,2.20
2023-05-19T05:51:11.912Z,2.10
2023-05-19T05:54:14.552Z,2.20
2023-05-19T05:57:16.864Z,2.23
2023-05-19T06:00:19.399Z,2.33
2023-05-19T06:03:24.332Z,2.40
2023-05-19T06:06:26.742Z,2.20
2023-05-19T06:09:30.239Z,2.10
2023-05-19T06:12:32.418Z,2.57
2023-05-19T06:15:34.568Z,1.87
2023-05-19T06:18:36.807Z,1.70
2023-05-19T06:21:39.087Z,1.90
2023-05-19T06:24:42.114Z,1.73
2023-05-19T06:27:44.238Z,2.00
2023-05-19T06:30:46.369Z,2.00
2023-05-19T06:33:48.501Z,1.80
2023-05-19T06:37:04.845Z,1.87
2023-05-19T06:40:07.314Z,2.00
2023-05-19T06:43:09.453Z,2.00
2023-05-19T06:46:13.111Z,1.97
2023-05-19T06:49:15.421Z,2.03
2023-05-19T06:52:17.726Z,2.47
2023-05-19T06:55:20.023Z,2.50
2023-05-19T06:58:22.155Z,2.13
2023-05-19T07:01:26.454Z,2.27
2023-05-19T07:04:47.439Z,2.07
2023-05-19T07:07:49.575Z,2.27
2023-05-19T07:10:51.774Z,1.83
2023-05-19T07:13:54.006Z,2.20
2023-05-19T07:16:56.101Z,2.20
2023-05-19T07:19:58.297Z,2.13
2023-05-19T07:23:02.594Z,2.40
2023-05-19T07:26:04.756Z,2.40
2023-05-19T07:29:06.959Z,2.57
2023-05-19T07:32:09.213Z,2.83
2023-05-19T07:35:11.613Z,2.17
2023-05-19T07:38:14.522Z,2.37
2023-05-19T07:41:16.632Z,2.53
2023-05-19T07:44:19.151Z,2.37
2023-05-19T07:47:21.284Z,2.70
2023-05-19T07:50:23.413Z,3.70
2023-05-19T07:53:26.047Z,2.43
2023-05-19T07:57:02.535Z,2.70
2023-05-19T08:00:09.912Z,2.53
2023-05-19T08:03:12.282Z,2.40
2023-05-19T08:06:14.461Z,2.20
2023-05-19T08:09:16.691Z,2.00
2023-05-19T08:12:18.853Z,2.70
2023-05-19T08:15:21.792Z,2.90
2023-05-19T08:18:23.904Z,2.73
2023-05-19T08:21:26.042Z,2.70
2023-05-19T08:24:32.720Z,2.30
2023-05-19T08:27:34.916Z,2.30
2023-05-19T08:30:37.231Z,2.57
2023-05-19T08:33:39.413Z,2.03
2023-05-19T08:36:41.888Z,2.23
2023-05-19T08:39:44.063Z,2.70
2023-05-19T08:42:46.508Z,2.70
2023-05-19T08:45:48.707Z,2.93
2023-05-19T08:48:55.168Z,2.80
2023-05-19T08:52:10.085Z,2.87
2023-05-19T08:55:34.058Z,2.93
2023-05-19T08:58:51.287Z,3.10
2023-05-19T09:01:54.782Z,2.40
2023-05-19T09:04:57.668Z,2.20
2023-05-19T09:08:02.830Z,2.43
2023-05-19T09:11:05.062Z,2.33
2023-05-19T09:14:07.254Z,2.10
2023-05-19T09:17:09.434Z,2.30
2023-05-19T09:20:11.852Z,2.57
2023-05-19T09:23:15.793Z,2.93
2023-05-19T09:26:18.140Z,3.17
2023-05-19T09:29:20.434Z,2.83
2023-05-19T09:32:29.517Z,2.67
2023-05-19T09:35:32.102Z,2.80
2023-05-19T09:38:35.381Z,2.33
2023-05-19T09:41:38.000Z,2.70
2023-05-19T09:44:40.139Z,2.13
2023-05-19T09:47:42.821Z,3.33
2023-05-19T09:50:45.640Z,2.60
2023-05-19T09:53:47.943Z,2.63
2023-05-19T09:57:08.883Z,2.43
2023-05-19T10:00:12.377Z,2.87
2023-05-19T10:03:16.371Z,2.27
2023-05-19T10:06:18.729Z,2.40
2023-05-19T10:09:24.950Z,2.17
2023-05-19T10:12:27.310Z,2.10
2023-05-19T10:15:29.437Z,2.43
2023-05-19T10:18:31.571Z,2.40
2023-05-19T10:21:33.763Z,2.37
2023-05-19T10:24:35.955Z,2.43
2023-05-19T10:27:44.175Z,2.10
2023-05-19T10:30:48.228Z,2.10
2023-05-19T10:33:50.340Z,2.40
2023-05-19T10:36:59.631Z,2.27
2023-05-19T10:40:07.304Z,2.50
2023-05-19T10:43:13.095Z,2.00
2023-05-19T10:46:15.776Z,2.17
2023-05-19T10:49:22.555Z,2.20
2023-05-19T10:52:40.013Z,1.83
2023-05-19T10:56:06.966Z,2.20
2023-05-19T10:59:46.425Z,1.80
2023-05-19T11:02:56.160Z,1.87
2023-05-19T11:06:29.771Z,1.90
2023-05-19T11:09:39.908Z,1.73
2023-05-19T11:12:43.871Z,1.93
2023-05-19T11:15:46.115Z,1.80
2023-05-19T11:18:49.695Z,2.00
2023-05-19T11:21:55.393Z,2.13
2023-05-19T11:24:58.353Z,1.80
2023-05-19T11:28:00.800Z,1.77
2023-05-19T11:31:03.280Z,1.77
2023-05-19T11:34:07.252Z,1.90
2023-05-19T11:37:09.538Z,1.80
2023-05-19T11:40:13.908Z,2.07
2023-05-19T11:43:16.659Z,1.97
2023-05-19T11:46:18.940Z,1.40
2023-05-19T11:49:21.230Z,1.93
2023-05-19T11:52:23.640Z,1.90
2023-05-19T11:55:25.740Z,1.60
2023-05-19T11:58:28.009Z,1.80
2023-05-19T12:01:31.846Z,2.00
2023-05-19T12:04:34.117Z,1.53
2023-05-19T12:07:39.385Z,2.00
2023-05-19T12:10:41.876Z,1.53
2023-05-19T12:18:04.672Z,2.10
2023-05-19T12:21:06.857Z,1.90
2023-05-19T12:24:09.205Z,1.93
2023-05-19T12:27:19.607Z,1.80
2023-05-19T12:30:25.546Z,1.67
2023-05-19T12:33:27.672Z,1.90
2023-05-19T12:36:31.730Z,1.67
2023-05-19T12:39:34.269Z,1.90
2023-05-19T12:42:36.422Z,1.80
2023-05-19T12:45:42.425Z,1.70
2023-05-19T12:48:44.663Z,2.00
2023-05-19T12:51:52.459Z,1.80
2023-05-19T12:55:01.602Z,1.60
2023-05-19T12:58:06.538Z,1.80
2023-05-19T13:01:15.858Z,1.43
2023-05-19T13:04:18.201Z,1.40
2023-05-19T13:07:54.884Z,1.50
2023-05-19T13:10:57.149Z,1.63
2023-05-19T13:13:59.433Z,1.80
2023-05-19T13:17:01.892Z,1.90
2023-05-19T13:20:04.844Z,1.67
2023-05-19T13:23:07.157Z,1.60
2023-05-19T13:26:11.487Z,1.87
2023-05-19T13:29:13.651Z,1.87
2023-05-19T13:32:15.819Z,1.80
2023-05-19T13:35:17.940Z,2.00
2023-05-19T13:38:20.044Z,2.20
2023-05-19T13:41:32.365Z,2.00
2023-05-19T13:44:34.639Z,2.10
2023-05-19T13:47:36.915Z,1.70
2023-05-19T13:50:48.239Z,2.17
2023-05-19T13:53:50.380Z,2.00
2023-05-19T13:56:52.583Z,1.97
2023-05-19T14:00:02.686Z,1.87
2023-05-19T14:03:06.207Z,2.00
2023-05-19T14:06:09.043Z,2.27
2023-05-19T14:09:11.196Z,1.73
2023-05-19T14:12:13.893Z,2.00
2023-05-19T14:15:16.144Z,1.83
2023-05-19T14:18:18.257Z,1.80
2023-05-19T14:21:20.380Z,2.10
2023-05-19T14:24:22.568Z,1.73
2023-05-19T14:27:24.784Z,1.70
2023-05-19T14:30:26.977Z,1.87
2023-05-19T14:33:32.723Z,1.70
2023-05-19T14:36:37.108Z,2.03
2023-05-19T14:39:39.252Z,2.27
2023-05-19T14:42:41.442Z,1.87
2023-05-19T14:48:54.447Z,1.90
2023-05-19T14:51:56.748Z,2.10
2023-05-19T14:54:58.865Z,1.83
2023-05-19T14:58:01.022Z,1.60
2023-05-19T15:01:03.231Z,1.70
2023-05-19T15:04:05.612Z,1.70
2023-05-19T15:07:10.992Z,2.10
2023-05-19T15:10:16.934Z,3.33
2023-05-19T15:13:19.198Z,1.80
2023-05-19T15:16:21.410Z,2.13
2023-05-19T15:19:23.644Z,2.10
2023-05-19T15:22:26.273Z,1.77
2023-05-19T15:25:28.421Z,1.37
2023-05-19T15:28:30.945Z,1.93
2023-05-19T15:31:34.057Z,2.20
2023-05-19T15:34:37.824Z,2.13
2023-05-19T15:37:39.982Z,1.50
2023-05-19T15:40:59.489Z,1.90
2023-05-19T15:44:02.478Z,2.00
2023-05-19T15:47:04.858Z,1.80
2023-05-19T15:50:07.329Z,1.60
2023-05-19T15:53:10.564Z,1.80
2023-05-19T15:56:13.470Z,1.83
2023-05-19T15:59:15.575Z,1.40
2023-05-19T16:02:17.775Z,1.67
2023-05-19T16:05:21.949Z,1.83
2023-05-19T16:08:24.347Z,1.80
2023-05-19T16:11:26.718Z,1.60
2023-05-19T16:14:31.992Z,1.70
2023-05-19T16:17:34.797Z,1.70
2023-05-19T16:20:36.996Z,1.77
2023-05-19T16:23:39.135Z,1.53
2023-05-19T16:26:41.276Z,1.63
2023-05-19T16:29:43.405Z,1.33
2023-05-19T16:32:45.829Z,1.60
2023-05-19T16:35:48.010Z,1.53
2023-05-19T16:38:50.296Z,1.53
2023-05-19T16:41:53.166Z,1.63
2023-05-19T16:44:55.560Z,1.60
2023-05-19T16:47:57.750Z,1.70
2023-05-19T16:50:59.862Z,1.50
2023-05-19T16:54:02.044Z,1.87
2023-05-19T16:57:04.413Z,1.57
2023-05-19T17:00:07.104Z,1.27
2023-05-19T17:03:09.314Z,1.60
2023-05-19T17:06:11.695Z,1.50
2023-05-19T17:09:13.958Z,1.73
2023-05-19T17:12:16.285Z,1.60
2023-05-19T17:15:19.121Z,1.57
2023-05-19T17:18:21.429Z,1.50
2023-05-19T17:21:23.530Z,1.57
2023-05-19T17:24:25.792Z,1.50
2023-05-19T17:27:27.894Z,1.80
2023-05-19T17:30:55.136Z,1.83
2023-05-19T17:33:57.242Z,1.53
2023-05-19T17:36:59.360Z,1.53
2023-05-19T17:40:01.504Z,1.73
2023-05-19T17:43:03.728Z,1.80
2023-05-19T17:46:08.473Z,1.73
2023-05-19T17:49:10.803Z,1.70
2023-05-19T17:52:13.142Z,1.80
2023-05-19T17:55:15.361Z,1.50
2023-05-19T17:58:18.250Z,1.50
2023-05-19T18:01:23.758Z,1.67
2023-05-19T18:04:26.165Z,1.70
2023-05-19T18:07:28.944Z,1.90
2023-05-19T18:10:33.410Z,1.97
2023-05-19T18:13:37.105Z,1.77
2023-05-19T18:16:39.304Z,1.70
2023-05-19T18:19:41.583Z,1.80
2023-05-19T18:22:43.725Z,2.10
2023-05-19T18:25:53.221Z,1.80
2023-05-19T18:28:55.623Z,1.80
2023-05-19T18:31:57.903Z,1.97
2023-05-19T18:35:00.051Z,1.90
2023-05-19T18:38:02.425Z,1.93
2023-05-19T18:41:06.979Z,1.87
2023-05-19T18:44:09.277Z,1.97
2023-05-19T18:47:19.009Z,1.80
2023-05-19T18:50:21.115Z,2.00
2023-05-19T18:53:23.229Z,1.87
2023-05-19T18:56:26.127Z,1.97
2023-05-19T18:59:28.249Z,2.03
2023-05-19T19:02:31.179Z,2.10
2023-05-19T19:05:33.389Z,1.83
2023-05-19T19:08:35.512Z,1.90
2023-05-19T19:11:37.684Z,2.00
2023-05-19T19:14:39.869Z,1.70
2023-05-19T19:17:42.035Z,1.87
2023-05-19T19:20:44.201Z,1.90
2023-05-19T19:23:49.381Z,1.80
2023-05-19T19:26:56.687Z,1.80
2023-05-19T19:29:59.397Z,2.30
2023-05-19T19:33:01.719Z,2.23
2023-05-19T19:36:04.062Z,1.90
2023-05-19T19:39:06.186Z,2.00
2023-05-19T19:42:08.424Z,2.27
2023-05-19T19:45:12.110Z,2.10
2023-05-19T19:48:16.255Z,2.43
2023-05-19T19:51:18.369Z,2.27
2023-05-19T19:54:20.513Z,2.10
2023-05-19T19:57:22.667Z,2.30
2023-05-19T20:00:24.847Z,2.30
2023-05-19T20:03:27.774Z,2.17
2023-05-19T20:06:32.223Z,2.10
2023-05-19T20:09:34.446Z,2.40
2023-05-19T20:12:36.599Z,1.90
2023-05-19T20:15:39.465Z,2.10
2023-05-19T20:18:42.683Z,2.10
2023-05-19T20:22:19.339Z,2.40
2023-05-19T20:25:21.457Z,2.03
2023-05-19T20:28:24.203Z,1.97
2023-05-19T20:31:26.619Z,2.20
2023-05-19T20:34:28.953Z,1.83
2023-05-19T20:37:31.153Z,1.93
2023-05-19T20:40:33.268Z,2.07
2023-05-19T20:43:35.722Z,2.20
2023-05-19T20:46:39.904Z,2.20
2023-05-19T20:49:42.021Z,2.77
2023-05-19T20:52:44.235Z,2.73
2023-05-19T21:06:07.508Z,2.53
2023-05-19T21:09:10.769Z,2.13
2023-05-19T21:12:22.020Z,2.30
2023-05-19T21:15:30.337Z,2.20
2023-05-19T21:18:32.695Z,2.27
2023-05-19T21:25:45.419Z,5.73
2023-05-19T21:28:49.697Z,4.60
2023-05-19T21:32:01.134Z,2.50
2023-05-19T21:35:11.423Z,2.23
2023-05-19T21:38:23.309Z,2.50
2023-05-19T21:41:26.233Z,2.50
2023-05-19T21:44:33.358Z,2.57
2023-05-19T21:47:35.826Z,2.80
2023-05-19T21:50:38.696Z,3.27
2023-05-19T21:53:41.084Z,2.57
2023-05-19T22:00:54.587Z,2.80
2023-05-19T22:04:05.722Z,3.13
2023-05-19T22:07:08.102Z,2.80
2023-05-19T22:10:18.928Z,2.97
2023-05-19T22:13:33.549Z,3.10
2023-05-19T22:16:35.770Z,3.03
2023-05-19T22:19:38.109Z,3.13
2023-05-19T22:22:40.389Z,2.90
2023-05-19T22:25:43.033Z,3.07
2023-05-19T22:28:45.279Z,3.23
2023-05-19T22:31:47.495Z,3.00
2023-05-19T22:38:53.384Z,3.00
2023-05-19T22:41:55.497Z,3.13
2023-05-19T22:44:57.667Z,3.00
2023-05-19T22:47:59.861Z,3.30
2023-05-19T22:51:02.086Z,3.27
2023-05-19T22:54:04.284Z,3.30
2023-05-19T22:57:06.587Z,3.50
2023-05-19T23:00:09.684Z,3.30
2023-05-19T23:03:12.088Z,3.40
2023-05-19T23:06:14.284Z,3.10
2023-05-19T23:09:17.871Z,3.40
2023-05-19T23:12:20.067Z,3.10
2023-05-19T23:15:22.194Z,3.77
2023-05-19T23:18:24.329Z,3.10
2023-05-19T23:21:26.415Z,3.43
2023-05-19T23:24:32.658Z,3.03
2023-05-19T23:27:36.127Z,3.13
2023-05-19T23:30:38.798Z,3.50
2023-05-19T23:33:41.103Z,3.70
2023-05-19T23:36:43.211Z,3.37
2023-05-19T23:39:45.375Z,3.50
2023-05-19T23:42:47.528Z,3.53
2023-05-19T23:45:49.666Z,3.20
2023-05-19T23:48:51.804Z,3.30
2023-05-19T23:51:54.446Z,2.97
2023-05-19T23:54:56.563Z,3.87
2023-05-19T23:57:58.769Z,3.50
